| time (UTC) | temp F | wind direction | speed MPH | gust MPH | rain 1hr in | rain 24hr in | rain mn in | humidity % | barometer mb |
| 20260508051549 | 59 | 195 | 6.0 | 10.0 | 0.00 | 0.00 | 0.00 | 61 | 1011.3 |
| 20260508051516 | 61 | 167 | 0.0 | 6.0 | 0.00 | 0.00 | 0.00 | 89 | 1015.5 |
| 20260508050045 | 60 | 217 | 4.0 | 11.0 | 0.00 | 0.00 | 0.00 | 60 | 1011.3 |
| 20260508050010 | 61 | 116 | 0.0 | 7.0 | 0.00 | 0.00 | 0.00 | 89 | 1015.5 |
| 20260508044545 | 60 | 216 | 5.0 | 10.0 | 0.00 | 0.00 | 0.00 | 59 | 1011.5 |
| 20260508044507 | 62 | 126 | 2.0 | 6.0 | 0.00 | 0.00 | 0.00 | 89 | 1015.5 |
| 20260508043050 | 61 | 233 | 6.0 | 10.0 | 0.00 | 0.00 | 0.00 | 59 | 1011.5 |
| 20260508043014 | 62 | 131 | 0.0 | 5.0 | 0.00 | 0.00 | 0.00 | 88 | 1015.3 |
| 20260508041545 | 61 | 228 | 3.0 | 9.0 | 0.00 | 0.00 | 0.00 | 58 | 1011.7 |
| 20260508041509 | 62 | 120 | 0.0 | 0.0 | 0.00 | 0.00 | 0.00 | 88 | 1015.0 |
| 20260508040050 | 62 | 214 | 3.0 | 10.0 | 0.00 | 0.00 | 0.00 | 57 | 1011.6 |
| 20260508040006 | 62 | 142 | 0.0 | 4.0 | 0.00 | 0.00 | 0.00 | 88 | 1014.9 |
| 20260508034546 | 62 | 219 | 6.0 | 12.0 | 0.00 | 0.00 | 0.00 | 56 | 1011.5 |
| 20260508034506 | 62 | 136 | 1.0 | 7.0 | 0.00 | 0.00 | 0.00 | 87 | 1014.7 |
| 20260508033043 | 62 | 216 | 5.0 | 12.0 | 0.00 | 0.00 | 0.00 | 56 | 1011.6 |
| 20260508033007 | 62 | 140 | 2.0 | 7.0 | 0.00 | 0.00 | 0.00 | 87 | 1014.5 |
| 20260508031551 | 62 | 160 | 5.0 | 10.0 | 0.00 | 0.00 | 0.00 | 56 | 1011.4 |
| 20260508031505 | 63 | 158 | 1.0 | 8.0 | 0.00 | 0.00 | 0.00 | 86 | 1014.3 |
| 20260508030043 | 63 | 222 | 6.0 | 11.0 | 0.00 | 0.00 | 0.00 | 55 | 1011.2 |
| 20260508030004 | 63 | 152 | 0.0 | 0.0 | 0.00 | 0.00 | 0.00 | 85 | 1014.0 |
| 20260508024541 | 63 | 216 | 8.0 | 13.0 | 0.00 | 0.00 | 0.00 | 54 | 1011.1 |
| 20260508024504 | 63 | 144 | 0.0 | 7.0 | 0.00 | 0.00 | 0.00 | 84 | 1013.8 |
| 20260508023041 | 63 | 217 | 5.0 | 13.0 | 0.00 | 0.00 | 0.00 | 53 | 1010.9 |
| 20260508023003 | 64 | 142 | 6.0 | 10.0 | 0.00 | 0.00 | 0.00 | 82 | 1013.7 |
| 20260508021542 | 64 | 210 | 3.0 | 9.0 | 0.00 | 0.00 | 0.00 | 53 | 1010.9 |
| 20260508021503 | 65 | 140 | 3.0 | 9.0 | 0.00 | 0.00 | 0.00 | 81 | 1013.6 |
| 20260508020039 | 64 | 171 | 4.0 | 11.0 | 0.00 | 0.00 | 0.00 | 53 | 1010.6 |
| 20260508020007 | 66 | 141 | 0.0 | 7.0 | 0.00 | 0.00 | 0.00 | 80 | 1013.5 |
| 20260508014539 | 65 | 197 | 1.0 | 5.0 | 0.00 | 0.00 | 0.00 | 52 | 1010.6 |
| 20260508014503 | 66 | 159 | 2.0 | 8.0 | 0.00 | 0.00 | 0.00 | 78 | 1013.4 |
| 20260508013041 | 65 | 141 | 2.0 | 8.0 | 0.00 | 0.00 | 0.00 | 49 | 1010.5 |
| 20260508013001 | 67 | 160 | 3.0 | 8.0 | 0.00 | 0.00 | 0.00 | 76 | 1013.2 |
| 20260508011545 | 66 | 205 | 4.0 | 8.0 | 0.00 | 0.00 | 0.00 | 48 | 1010.5 |
| 20260508011501 | 68 | 155 | 0.0 | 8.0 | 0.00 | 0.00 | 0.00 | 75 | 1013.1 |
| 20260508010100 | 69 | 146 | 0.0 | 0.0 | 0.00 | 0.00 | 0.00 | 73 | 1013.2 |
| 20260508010040 | 67 | 142 | 5.0 | 11.0 | 0.00 | 0.00 | 0.00 | 47 | 1010.4 |
| 20260508004601 | 70 | 117 | 0.0 | 0.0 | 0.00 | 0.00 | 0.00 | 72 | 1013.2 |
| 20260508004540 | 68 | 359 | 5.0 | 11.0 | 0.00 | 0.00 | 0.00 | 46 | 1010.5 |
| 20260508003059 | 70 | 113 | 0.0 | 0.0 | 0.00 | 0.00 | 0.00 | 72 | 1013.1 |
| 20260508003037 | 68 | 359 | 7.0 | 12.0 | 0.00 | 0.00 | 0.00 | 44 | 1010.4 |
| 20260508001558 | 70 | 161 | 0.0 | 9.0 | 0.00 | 0.00 | 0.00 | 72 | 1013.1 |
| 20260508001538 | 69 | 192 | 7.0 | 13.0 | 0.00 | 0.00 | 0.00 | 44 | 1010.5 |
| 20260508000059 | 70 | 138 | 0.0 | 9.0 | 0.00 | 0.00 | 0.00 | 71 | 1013.0 |
| 20260508000039 | 69 | 159 | 5.0 | 15.0 | 0.00 | 0.00 | 0.00 | 44 | 1010.7 |
| 20260507234558 | 70 | 113 | 0.0 | 8.0 | 0.00 | 0.00 | 0.00 | 71 | 1013.0 |
| 20260507234542 | 69 | 197 | 8.0 | 13.0 | 0.00 | 0.00 | 0.00 | 42 | 1010.6 |
| 20260507233055 | 70 | 153 | 0.0 | 9.0 | 0.00 | 0.00 | 0.00 | 71 | 1013.2 |
| 20260507233035 | 70 | 359 | 3.0 | 16.0 | 0.00 | 0.00 | 0.00 | 42 | 1010.9 |
| 20260507231558 | 71 | 150 | 1.0 | 11.0 | 0.00 | 0.00 | 0.00 | 69 | 1013.2 |
| 20260507231537 | 70 | 359 | 3.0 | 17.0 | 0.00 | 0.00 | 0.00 | 42 | 1011.0 |
| 20260507230052 | 72 | 121 | 0.0 | 9.0 | 0.00 | 0.00 | 0.00 | 68 | 1013.3 |
| 20260507230029 | 70 | 359 | 7.0 | 16.0 | 0.00 | 0.00 | 0.00 | 41 | 1011.1 |
| 20260507224554 | 73 | 146 | 0.0 | 2.0 | 0.00 | 0.00 | 0.00 | 68 | 1013.5 |
| 20260507224528 | 70 | 359 | 6.0 | 19.0 | 0.00 | 0.00 | 0.00 | 42 | 1011.4 |
| 20260507223055 | 73 | 178 | 0.0 | 5.0 | 0.00 | 0.00 | 0.00 | 66 | 1013.5 |
| 20260507223026 | 69 | 165 | 13.0 | 21.0 | 0.00 | 0.00 | 0.00 | 42 | 1011.3 |
| 20260507221549 | 74 | 171 | 0.0 | 7.0 | 0.00 | 0.00 | 0.00 | 65 | 1013.6 |
| 20260507221525 | 70 | 359 | 9.0 | 15.0 | 0.00 | 0.00 | 0.00 | 42 | 1011.5 |
| 20260507220048 | 74 | 159 | 0.0 | 5.0 | 0.00 | 0.00 | 0.00 | 65 | 1013.8 |
| 20260507220024 | 69 | 359 | 10.0 | 18.0 | 0.00 | 0.00 | 0.00 | 43 | 1011.6 |
| 20260507214546 | 74 | 137 | 0.0 | 0.0 | 0.00 | 0.00 | 0.00 | 63 | 1013.9 |
| 20260507214528 | 69 | 359 | 11.0 | 19.0 | 0.00 | 0.00 | 0.00 | 44 | 1011.6 |
| 20260507213048 | 74 | 184 | 1.0 | 9.0 | 0.00 | 0.00 | 0.00 | 62 | 1014.0 |
| 20260507213022 | 69 | 208 | 6.0 | 21.0 | 0.00 | 0.00 | 0.00 | 44 | 1011.7 |
| 20260507211545 | 74 | 148 | 0.0 | 10.0 | 0.00 | 0.00 | 0.00 | 63 | 1014.1 |
| 20260507211518 | 68 | 188 | 12.0 | 25.0 | 0.00 | 0.00 | 0.00 | 45 | 1011.8 |
| 20260507210045 | 74 | 160 | 0.0 | 9.0 | 0.00 | 0.00 | 0.00 | 62 | 1014.2 |
| 20260507210017 | 68 | 192 | 9.0 | 19.0 | 0.00 | 0.00 | 0.00 | 46 | 1012.2 |
| 20260507204544 | 75 | 125 | 0.0 | 6.0 | 0.00 | 0.00 | 0.00 | 63 | 1014.4 |
| 20260507204515 | 68 | 114 | 12.0 | 25.0 | 0.00 | 0.00 | 0.00 | 45 | 1012.4 |
| 20260507203041 | 74 | 162 | 0.0 | 7.0 | 0.00 | 0.00 | 0.00 | 65 | 1014.6 |
| 20260507203010 | 67 | 213 | 9.0 | 20.0 | 0.00 | 0.00 | 0.00 | 46 | 1012.7 |
| 20260507201537 | 74 | 132 | 0.0 | 7.0 | 0.00 | 0.00 | 0.00 | 63 | 1014.7 |
| 20260507201515 | 67 | 197 | 12.0 | 27.0 | 0.00 | 0.00 | 0.00 | 47 | 1013.1 |
| 20260507200029 | 74 | 148 | 0.0 | 3.0 | 0.00 | 0.00 | 0.00 | 63 | 1014.8 |
| 20260507200008 | 67 | 189 | 11.0 | 27.0 | 0.00 | 0.00 | 0.00 | 47 | 1013.3 |
| 20260507194525 | 74 | 144 | 0.0 | 7.0 | 0.00 | 0.00 | 0.00 | 64 | 1014.9 |
| 20260507194506 | 66 | 217 | 9.0 | 21.0 | 0.00 | 0.00 | 0.00 | 47 | 1013.5 |
| 20260507193020 | 74 | 155 | 0.0 | 0.0 | 0.00 | 0.00 | 0.00 | 66 | 1014.9 |
| 20260507193005 | 65 | 199 | 10.0 | 25.0 | 0.00 | 0.00 | 0.00 | 48 | 1013.8 |
| 20260507191600 | 65 | 184 | 10.0 | 23.0 | 0.00 | 0.00 | 0.00 | 49 | 1014.1 |
| 20260507191519 | 73 | 162 | 0.0 | 0.0 | 0.00 | 0.00 | 0.00 | 67 | 1015.0 |
| 20260507190059 | 65 | 219 | 10.0 | 22.0 | 0.00 | 0.00 | 0.00 | 49 | 1014.1 |
| 20260507190019 | 73 | 156 | 0.0 | 0.0 | 0.00 | 0.00 | 0.00 | 67 | 1015.1 |
| 20260507184558 | 65 | 233 | 11.0 | 25.0 | 0.00 | 0.00 | 0.00 | 50 | 1014.2 |
| 20260507184516 | 73 | 128 | 0.0 | 1.0 | 0.00 | 0.00 | 0.00 | 68 | 1015.3 |
| 20260507183054 | 64 | 218 | 13.0 | 22.0 | 0.00 | 0.00 | 0.00 | 50 | 1014.4 |
| 20260507183017 | 73 | 134 | 0.0 | 0.0 | 0.00 | 0.00 | 0.00 | 68 | 1015.4 |
| 20260507181553 | 65 | 198 | 11.0 | 19.0 | 0.00 | 0.00 | 0.00 | 49 | 1014.7 |
| 20260507181513 | 73 | 148 | 0.0 | 0.0 | 0.00 | 0.00 | 0.00 | 67 | 1015.4 |
| 20260507180052 | 64 | 196 | 13.0 | 24.0 | 0.00 | 0.00 | 0.00 | 51 | 1015.0 |
| 20260507180011 | 72 | 127 | 0.0 | 0.0 | 0.00 | 0.00 | 0.00 | 68 | 1015.5 |
| 20260507174614 | 63 | 195 | 13.0 | 27.0 | 0.00 | 0.00 | 0.00 | 50 | 1015.2 |
| 20260507174511 | 73 | 141 | 0.0 | 0.0 | 0.00 | 0.00 | 0.00 | 67 | 1015.6 |
| 20260507173045 | 63 | 245 | 9.0 | 17.0 | 0.00 | 0.00 | 0.00 | 50 | 1015.4 |
| 20260507173018 | 72 | 141 | 0.0 | 0.0 | 0.00 | 0.00 | 0.00 | 68 | 1015.7 |
| 20260507171600 | 62 | 222 | 9.0 | 21.0 | 0.00 | 0.00 | 0.00 | 52 | 1015.6 |
| 20260507171504 | 71 | 153 | 0.0 | 0.0 | 0.00 | 0.00 | 0.00 | 70 | 1015.6 |
| 20260507170100 | 69 | 126 | 0.0 | 0.0 | 0.00 | 0.00 | 0.00 | 73 | 1015.7 |
| 20260507170042 | 62 | 216 | 10.0 | 22.0 | 0.00 | 0.00 | 0.00 | 51 | 1016.0 |
| 20260507164555 | 68 | 150 | 0.0 | 0.0 | 0.00 | 0.00 | 0.00 | 74 | 1015.9 |
| 20260507164541 | 62 | 231 | 11.0 | 21.0 | 0.00 | 0.00 | 0.00 | 52 | 1016.3 |
| 20260507163057 | 68 | 152 | 0.0 | 0.0 | 0.00 | 0.00 | 0.00 | 75 | 1016.0 |
| 20260507163037 | 62 | 228 | 6.0 | 24.0 | 0.00 | 0.00 | 0.00 | 52 | 1016.5 |
| 20260507161550 | 66 | 132 | 0.0 | 0.0 | 0.00 | 0.00 | 0.00 | 80 | 1016.1 |
| 20260507161539 | 61 | 212 | 9.0 | 22.0 | 0.00 | 0.00 | 0.00 | 54 | 1016.5 |
| 20260507160047 | 64 | 122 | 0.0 | 0.0 | 0.00 | 0.00 | 0.00 | 82 | 1016.1 |
| 20260507160044 | 60 | 239 | 6.0 | 18.0 | 0.00 | 0.00 | 0.00 | 55 | 1016.7 |
| 20260507154541 | 63 | 205 | 0.0 | 0.0 | 0.00 | 0.00 | 0.00 | 85 | 1016.4 |
| 20260507154530 | 59 | 278 | 10.0 | 24.0 | 0.00 | 0.00 | 0.00 | 57 | 1016.9 |
| 20260507153037 | 62 | 207 | 0.0 | 0.0 | 0.00 | 0.00 | 0.00 | 88 | 1016.1 |
| 20260507153029 | 59 | 222 | 12.0 | 20.0 | 0.00 | 0.00 | 0.00 | 56 | 1017.1 |
| 20260507151538 | 60 | 209 | 0.0 | 0.0 | 0.00 | 0.00 | 0.00 | 90 | 1016.3 |
| 20260507151524 | 58 | 258 | 8.0 | 19.0 | 0.00 | 0.00 | 0.00 | 58 | 1017.2 |
| 20260507150036 | 60 | 209 | 0.0 | 0.0 | 0.00 | 0.00 | 0.00 | 92 | 1016.2 |
| 20260507150021 | 57 | 206 | 11.0 | 17.0 | 0.00 | 0.00 | 0.00 | 59 | 1017.4 |
| 20260507144552 | 59 | 209 | 0.0 | 0.0 | 0.00 | 0.00 | 0.00 | 92 | 1016.2 |
| 20260507144520 | 57 | 247 | 8.0 | 19.0 | 0.00 | 0.00 | 0.00 | 62 | 1017.4 |
| 20260507143035 | 58 | 209 | 0.0 | 0.0 | 0.00 | 0.00 | 0.00 | 93 | 1016.0 |
| 20260507143014 | 56 | 191 | 8.0 | 15.0 | 0.00 | 0.00 | 0.00 | 64 | 1017.6 |
| 20260507141535 | 57 | 209 | 0.0 | 0.0 | 0.00 | 0.00 | 0.00 | 93 | 1015.8 |
| 20260507141510 | 55 | 197 | 8.0 | 18.0 | 0.00 | 0.00 | 0.00 | 66 | 1017.5 |
| 20260507140034 | 57 | 209 | 0.0 | 0.0 | 0.00 | 0.00 | 0.00 | 93 | 1015.7 |
| 20260507140017 | 54 | 224 | 7.0 | 16.0 | 0.00 | 0.00 | 0.00 | 68 | 1017.7 |
| 20260507134533 | 56 | 209 | 0.0 | 0.0 | 0.00 | 0.00 | 0.00 | 92 | 1015.5 |
| 20260507134503 | 52 | 285 | 2.0 | 15.0 | 0.00 | 0.00 | 0.00 | 72 | 1017.7 |
| 20260507133105 | 51 | 208 | 9.0 | 14.0 | 0.00 | 0.00 | 0.00 | 75 | 1017.6 |
| 20260507133036 | 56 | 209 | 0.0 | 0.0 | 0.00 | 0.00 | 0.00 | 92 | 1015.4 |
| 20260507131618 | 50 | 268 | 8.0 | 12.0 | 0.00 | 0.00 | 0.00 | 77 | 1017.6 |
| 20260507131535 | 55 | 209 | 0.0 | 0.0 | 0.00 | 0.00 | 0.00 | 91 | 1015.3 |
| 20260507130052 | 48 | 191 | 6.0 | 14.0 | 0.00 | 0.00 | 0.00 | 78 | 1017.9 |
| 20260507130031 | 55 | 209 | 0.0 | 0.0 | 0.00 | 0.00 | 0.00 | 91 | 1015.2 |
| 20260507124600 | 47 | 202 | 6.0 | 14.0 | 0.00 | 0.00 | 0.00 | 80 | 1018.0 |
| 20260507124530 | 56 | 209 | 0.0 | 0.0 | 0.00 | 0.00 | 0.00 | 91 | 1015.1 |
| 20260507123051 | 46 | 191 | 5.0 | 12.0 | 0.00 | 0.00 | 0.00 | 83 | 1018.0 |
| 20260507123029 | 56 | 209 | 0.0 | 0.0 | 0.00 | 0.00 | 0.00 | 91 | 1015.0 |
| 20260507121550 | 44 | 180 | 4.0 | 7.0 | 0.00 | 0.00 | 0.00 | 84 | 1018.1 |
| 20260507121526 | 56 | 209 | 0.0 | 0.0 | 0.00 | 0.00 | 0.00 | 90 | 1015.0 |
| 20260507120049 | 43 | 149 | 3.0 | 6.0 | 0.00 | 0.00 | 0.00 | 85 | 1017.9 |
| 20260507120024 | 56 | 209 | 0.0 | 0.0 | 0.00 | 0.00 | 0.00 | 90 | 1015.2 |
| 20260507114548 | 42 | 203 | 2.0 | 5.0 | 0.00 | 0.00 | 0.00 | 85 | 1017.9 |
| 20260507114523 | 56 | 209 | 0.0 | 0.0 | 0.00 | 0.00 | 0.00 | 90 | 1015.2 |
| 20260507113106 | 42 | 359 | 3.0 | 6.0 | 0.00 | 0.00 | 0.00 | 85 | 1017.9 |
| 20260507113023 | 57 | 209 | 0.0 | 0.0 | 0.00 | 0.00 | 0.00 | 90 | 1015.2 |
| 20260507111544 | 42 | 359 | 1.0 | 4.0 | 0.00 | 0.00 | 0.00 | 84 | 1017.8 |
| 20260507111534 | 57 | 209 | 0.0 | 0.0 | 0.00 | 0.00 | 0.00 | 89 | 1015.4 |
| 20260507110043 | 42 | 359 | 2.0 | 4.0 | 0.00 | 0.00 | 0.00 | 84 | 1017.8 |
| 20260507110019 | 57 | 209 | 0.0 | 0.0 | 0.00 | 0.00 | 0.00 | 89 | 1015.4 |
| 20260507104549 | 42 | 359 | 2.0 | 5.0 | 0.00 | 0.00 | 0.00 | 83 | 1017.8 |
| 20260507104520 | 57 | 209 | 0.0 | 0.0 | 0.00 | 0.00 | 0.00 | 89 | 1015.4 |
| 20260507103038 | 43 | 359 | 2.0 | 6.0 | 0.00 | 0.00 | 0.00 | 82 | 1017.8 |
| 20260507103014 | 57 | 209 | 0.0 | 0.0 | 0.00 | 0.00 | 0.00 | 88 | 1015.6 |
| 20260507101536 | 43 | 359 | 3.0 | 5.0 | 0.00 | 0.00 | 0.00 | 82 | 1017.9 |
| 20260507101513 | 58 | 209 | 0.0 | 0.0 | 0.00 | 0.00 | 0.00 | 88 | 1015.6 |
| 20260507100043 | 43 | 359 | 2.0 | 4.0 | 0.00 | 0.00 | 0.00 | 81 | 1017.9 |
| 20260507100016 | 58 | 209 | 0.0 | 0.0 | 0.00 | 0.00 | 0.00 | 87 | 1015.7 |
| 20260507094533 | 43 | 359 | 2.0 | 5.0 | 0.00 | 0.00 | 0.00 | 79 | 1018.0 |
| 20260507094508 | 58 | 209 | 0.0 | 0.0 | 0.00 | 0.00 | 0.00 | 87 | 1015.7 |
| 20260507093034 | 44 | 359 | 3.0 | 6.0 | 0.00 | 0.00 | 0.00 | 77 | 1018.1 |
| 20260507093007 | 58 | 209 | 0.0 | 0.0 | 0.00 | 0.00 | 0.00 | 87 | 1015.9 |
| 20260507091529 | 44 | 202 | 3.0 | 6.0 | 0.00 | 0.00 | 0.00 | 76 | 1018.1 |
| 20260507091503 | 59 | 209 | 0.0 | 0.0 | 0.00 | 0.00 | 0.00 | 86 | 1016.1 |
| 20260507090100 | 59 | 209 | 0.0 | 0.0 | 0.00 | 0.00 | 0.00 | 86 | 1016.3 |
| 20260507090023 | 45 | 211 | 3.0 | 7.0 | 0.00 | 0.00 | 0.00 | 75 | 1018.2 |
| 20260507084557 | 60 | 209 | 0.0 | 0.0 | 0.00 | 0.00 | 0.00 | 85 | 1016.4 |
| 20260507084542 | 45 | 177 | 3.0 | 8.0 | 0.00 | 0.00 | 0.00 | 74 | 1018.2 |
| 20260507083056 | 60 | 209 | 0.0 | 0.0 | 0.00 | 0.00 | 0.00 | 85 | 1016.4 |
| 20260507083024 | 45 | 169 | 3.0 | 6.0 | 0.00 | 0.00 | 0.00 | 74 | 1018.3 |
| 20260507081557 | 60 | 209 | 0.0 | 0.0 | 0.00 | 0.00 | 0.00 | 84 | 1016.6 |
| 20260507081516 | 46 | 172 | 3.0 | 6.0 | 0.00 | 0.00 | 0.00 | 73 | 1018.3 |
| 20260507080052 | 61 | 209 | 0.0 | 0.0 | 0.00 | 0.00 | 0.00 | 84 | 1016.5 |
| 20260507080015 | 46 | 180 | 3.0 | 6.0 | 0.00 | 0.00 | 0.00 | 71 | 1018.3 |
| 20260507074551 | 61 | 209 | 0.0 | 0.0 | 0.00 | 0.00 | 0.00 | 83 | 1016.5 |
| 20260507074513 | 47 | 228 | 3.0 | 7.0 | 0.00 | 0.00 | 0.00 | 70 | 1018.4 |
| 20260507073052 | 61 | 209 | 0.0 | 0.0 | 0.00 | 0.00 | 0.00 | 83 | 1016.5 |
| 20260507073010 | 46 | 229 | 4.0 | 7.0 | 0.00 | 0.00 | 0.00 | 71 | 1018.4 |
| 20260507071551 | 61 | 209 | 0.0 | 0.0 | 0.00 | 0.00 | 0.00 | 82 | 1016.6 |
| 20260507071514 | 46 | 215 | 4.0 | 6.0 | 0.00 | 0.00 | 0.00 | 71 | 1018.5 |
| 20260507070045 | 62 | 209 | 0.0 | 0.0 | 0.00 | 0.00 | 0.00 | 82 | 1016.7 |
| 20260507070015 | 47 | 202 | 3.0 | 5.0 | 0.00 | 0.00 | 0.00 | 70 | 1018.7 |
| 20260507064544 | 62 | 209 | 0.0 | 0.0 | 0.00 | 0.00 | 0.00 | 80 | 1016.9 |
| 20260507064505 | 47 | 226 | 2.0 | 6.0 | 0.00 | 0.00 | 0.00 | 69 | 1018.7 |
| 20260507063048 | 62 | 209 | 0.0 | 0.0 | 0.00 | 0.00 | 0.00 | 80 | 1017.0 |
| 20260507063002 | 48 | 197 | 3.0 | 5.0 | 0.00 | 0.00 | 0.00 | 68 | 1018.9 |
| 20260507061601 | 48 | 215 | 2.0 | 5.0 | 0.00 | 0.00 | 0.00 | 66 | 1019.0 |
| 20260507061544 | 62 | 209 | 0.0 | 0.0 | 0.00 | 0.00 | 0.00 | 79 | 1016.7 |
| 20260507060100 | 49 | 197 | 3.0 | 7.0 | 0.00 | 0.00 | 0.00 | 65 | 1019.1 |
| 20260507060051 | 62 | 209 | 0.0 | 0.0 | 0.00 | 0.00 | 0.00 | 78 | 1016.8 |
| 20260507054557 | 48 | 188 | 2.0 | 4.0 | 0.00 | 0.02 | 0.00 | 70 | 1019.0 |
| 20260507054548 | 63 | 209 | 0.0 | 0.0 | 0.00 | 0.00 | 0.00 | 77 | 1016.8 |
| 20260507053057 | 48 | 199 | 2.0 | 3.0 | 0.00 | 0.02 | 0.00 | 73 | 1019.1 |
| 20260507053049 | 63 | 209 | 0.0 | 0.0 | 0.00 | 0.00 | 0.00 | 77 | 1016.7 |